Time;durP1;ratioP1;P1;durP2;ratioP2;P2;SDS_P1;SDS_P2;PMS_P1;PMS_P2;Temp;Humidity;BMP_temperature;BMP_pressure;BME280_temperature;BME280_humidity;BME280_pressure;Samples;Min_cycle;Max_cycle;Signal;HPM_P1;HPM_P2
2024/03/01 09:46:57;;;;;;;;;;;;;;;;;;4971874;28;19957;-89
2024/03/01 09:49:25;;;;;;;;;;;;;;;;;;4959923;28;19922;-95
2024/03/01 09:52:17;;;;;;;;;;;;;;;;;;4976649;28;19917;-91
2024/03/01 09:54:51;;;;;;;;;;;;;;;;;;4919765;29;19970;-95
2024/03/01 09:57:29;;;;;;;;;;;;;;;;;;4928422;29;19919;-92
2024/03/01 10:00:32;;;;;;;;;;;;;;;;;;4929737;29;19946;-93
2024/03/01 10:03:14;;;;;;;;;;;;;;;;;;4926753;29;19915;-92
2024/03/01 10:05:59;;;;;;;;;;;;;;;;;;4901946;29;19976;-94
2024/03/01 10:08:43;;;;;;;;;;;;;;;;;;4898225;29;19915;-94
2024/03/01 10:11:12;;;;;;;;;;;;;;;;;;4901052;29;20058;-96
2024/03/01 10:13:37;;;;;;;;;;;;;;;;;;4921309;29;19922;-94
2024/03/01 10:16:09;;;;;;;;;;;;;;;;;;4901004;29;19919;-94
2024/03/01 10:19:16;;;;;;;;;;;;;;;;;;4915507;29;19978;-87
2024/03/01 10:24:55;;;;;;;;;;;;;;;;;;5087124;23;19949;-95
2024/03/01 10:27:23;;;;;;;;;;;;;;;;;;4940961;29;19919;-95
2024/03/01 10:29:54;;;;;;;;;;;;;;;;;;4950521;28;19918;-95
2024/03/01 10:32:35;;;;;;;;;;;;;;;;;;5001115;28;19916;-96
2024/03/01 10:35:20;;;;;;;;;;;;;;;;;;4991105;28;19921;-96
2024/03/01 10:37:48;;;;;;;;;;;;;;;;;;4976573;28;20337;-95
2024/03/01 10:40:17;;;;;;;;;;;;;;;;;;4976882;28;19914;-96
2024/03/01 10:42:55;;;;;;;;;;;;;;;;;;4993219;28;19920;-95
2024/03/01 10:45:23;;;;;;;;;;;;;;;;;;4976463;28;19973;-92
2024/03/01 10:47:50;;;;;;;;;;;;;;;;;;4975275;28;20387;-94
2024/03/01 10:50:31;;;;;;;;;;;;;;;;;;4976948;28;19914;-96
2024/03/01 10:53:03;;;;;;;;;;;;;;;;;;4976773;28;19921;-96
2024/03/01 10:55:37;;;;;;;;;;;;;;;;;;4976273;28;19949;-89
2024/03/01 10:58:02;;;;;;;;;;;;;;;;;;4974305;28;19922;-91
2024/03/01 11:00:28;;;;;;;;;;;;;;;;;;4975263;28;20092;-94
2024/03/01 11:02:59;;;;;;;;;;;;;;;;;;4975646;28;19921;-95
2024/03/01 11:05:43;;;;;;;;;;;;;;;;;;4975133;28;19920;-94
2024/03/01 11:08:23;;;;;;;;;;;;;;;;;;4976045;28;19914;-92
2024/03/01 11:10:58;;;;;;;;;;;;;;;;;;4968297;28;19918;-88
2024/03/01 11:13:27;;;;;;;;;;;;;;;;;;4983472;28;19918;-92
2024/03/01 11:15:53;;;;;;;;;;;;;;;;;;4982259;28;19925;-90
2024/03/01 11:18:20;;;;;;;;;;;;;;;;;;4963169;28;19945;-90
2024/03/01 11:20:57;;;;;;;;;;;;;;;;;;4978793;28;19917;-90
2024/03/01 11:23:30;;;;;;;;;;;;;;;;;;4979586;28;19972;-94
2024/03/01 11:25:55;;;;;;;;;;;;;;;;;;4963349;28;20077;-91
2024/03/01 11:28:23;;;;;;;;;;;;;;;;;;4964762;28;19941;-91
2024/03/01 11:30:55;;;;;;;;;;;;;;;;;;4969050;28;19961;-95
2024/03/01 11:33:22;;;;;;;;;;;;;;;;;;4970430;28;19917;-96
2024/03/01 11:35:54;;;;;;;;;;;;;;;;;;4970470;28;19914;-94
2024/03/01 11:38:33;;;;;;;;;;;;;;;;;;4992362;28;19914;-94
2024/03/01 11:41:10;;;;;;;;;;;;;;;;;;4965339;28;19920;-89
2024/03/01 11:43:41;;;;;;;;;;;;;;;;;;4971413;28;19914;-91
2024/03/01 11:46:27;;;;;;;;;;;;;;;;;;4997639;28;19922;-95
2024/03/01 11:49:11;;;;;;;;;;;;;;;;;;4980195;28;19914;-88
2024/03/01 11:51:42;;;;;;;;;;;;;;;;;;4970571;28;20375;-90
2024/03/01 11:54:13;;;;;;;;;;;;;;;;;;4986243;28;19924;-90
2024/03/01 11:56:44;;;;;;;;;;;;;;;;;;4970810;28;19977;-89
2024/03/01 11:59:26;;;;;;;;;;;;;;;;;;4973465;28;20320;-89
2024/03/01 12:02:00;;;;;;;;;;;;;;;;;;4973318;28;19920;-89
2024/03/01 12:04:47;;;;;;;;;;;;;;;;;;4973056;28;19913;-88
2024/03/01 12:07:19;;;;;;;;;;;;;;;;;;4970278;28;19918;-91
2024/03/01 12:09:47;;;;;;;;;;;;;;;;;;4972254;28;19938;-87
2024/03/01 12:12:17;;;;;;;;;;;;;;;;;;4974676;28;19914;-88
2024/03/01 12:14:53;;;;;;;;;;;;;;;;;;4973397;28;19937;-88
2024/03/01 12:17:19;;;;;;;;;;;;;;;;;;4976293;28;19969;-88
2024/03/01 12:19:45;;;;;;;;;;;;;;;;;;4976477;28;19914;-90
2024/03/01 12:22:10;;;;;;;;;;;;;;;;;;4975520;28;19937;-88
2024/03/01 12:24:37;;;;;;;;;;;;;;;;;;4969897;28;19948;-90
2024/03/01 12:27:08;;;;;;;;;;;;;;;;;;4967698;28;19972;-89
2024/03/01 12:29:52;;;;;;;;;;;;;;;;;;4967894;28;19914;-90
2024/03/01 12:32:33;;;;;;;;;;;;;;;;;;4981193;28;19914;-90
2024/03/01 12:35:07;;;;;;;;;;;;;;;;;;4980112;28;19918;-89
2024/03/01 12:37:44;;;;;;;;;;;;;;;;;;4963303;28;19925;-87
2024/03/01 12:40:16;;;;;;;;;;;;;;;;;;4964515;28;19942;-87
2024/03/01 12:42:48;;;;;;;;;;;;;;;;;;4963138;28;19922;-91
2024/03/01 12:45:39;;;;;;;;;;;;;;;;;;4963419;28;20013;-88
2024/03/01 12:48:18;;;;;;;;;;;;;;;;;;4962268;28;20329;-87
2024/03/01 16:49:54;;;;;;;;;;;;;;;;;;4682882;23;9220209;-89
2024/03/01 16:52:22;;;;;;;;;;;;;;;;;;4991707;28;19925;-96
2024/03/01 16:54:49;;;;;;;;;;;;;;;;;;4985498;28;19914;-92
2024/03/01 16:57:35;;;;;;;;;;;;;;;;;;4984918;28;19914;-92
2024/03/01 17:00:09;;;;;;;;;;;;;;;;;;4988314;28;20365;-91
2024/03/01 17:02:36;;;;;;;;;;;;;;;;;;4989059;28;20028;-91
2024/03/01 17:05:08;;;;;;;;;;;;;;;;;;4990441;28;20280;-90
2024/03/01 17:07:53;;;;;;;;;;;;;;;;;;4987105;28;19965;-92
2024/03/01 17:10:22;;;;;;;;;;;;;;;;;;4988907;23;19922;-96
2024/03/01 17:13:03;;;;;;;;;;;;;;;;;;4966828;29;19919;-95
2024/03/01 17:15:52;;;;;;;;;;;;;;;;;;4970053;28;19915;-94
2024/03/01 17:18:19;;;;;;;;;;;;;;;;;;4969451;29;19914;-95
2024/03/01 17:20:48;;;;;;;;;;;;;;;;;;4973013;29;19921;-91
2024/03/01 17:23:16;;;;;;;;;;;;;;;;;;4979230;23;19948;-92
2024/03/01 17:25:42;;;;;;;;;;;;;;;;;;4997721;23;19994;-92
2024/03/01 17:28:13;;;;;;;;;;;;;;;;;;5016888;23;19906;-93
2024/03/01 17:30:47;;;;;;;;;;;;;;;;;;5004208;23;19929;-92
2024/03/01 17:33:14;;;;;;;;;;;;;;;;;;4990420;23;19946;-96
2024/03/01 17:35:45;;;;;;;;;;;;;;;;;;4974405;28;19957;-92
2024/03/01 17:38:48;;;;;;;;;;;;;;;;;;4978698;23;19928;-93
2024/03/01 17:41:17;;;;;;;;;;;;;;;;;;4999836;23;19922;-95
2024/03/01 17:43:46;;;;;;;;;;;;;;;;;;5278021;23;19955;-96
2024/03/01 17:46:13;;;;;;;;;;;;;;;;;;5029713;28;20382;-96
2024/03/01 17:48:38;;;;;;;;;;;;;;;;;;5014765;28;19948;-96
2024/03/01 17:51:03;;;;;;;;;;;;;;;;;;5020214;28;19917;-95
2024/03/01 17:56:09;;;;;;;;;;;;;;;;;;5057992;23;19948;-93
2024/03/01 17:59:01;;;;;;;;;;;;;;;;;;5042786;23;19929;-95
2024/03/01 18:01:43;;;;;;;;;;;;;;;;;;5116870;23;19909;-94
2024/03/01 18:04:48;;;;;;;;;;;;;;;;;;5222402;23;19921;-94
2024/03/01 18:07:43;;;;;;;;;;;;;;;;;;5251128;23;19922;-94
2024/03/01 18:10:23;;;;;;;;;;;;;;;;;;5203675;23;19922;-94
2024/03/01 18:12:55;;;;;;;;;;;;;;;;;;5093890;23;19922;-93
2024/03/01 18:15:31;;;;;;;;;;;;;;;;;;4977581;23;19910;-95
2024/03/01 18:21:11;;;;;;;;;;;;;;;;;;5213917;23;19917;-95
2024/03/01 18:23:38;;;;;;;;;;;;;;;;;;5096137;23;19922;-94
2024/03/01 18:26:08;;;;;;;;;;;;;;;;;;4999963;23;20464;-93
2024/03/01 18:28:54;;;;;;;;;;;;;;;;;;5016601;23;19964;-94
2024/03/01 18:31:52;;;;;;;;;;;;;;;;;;5035486;28;19917;-92
2024/03/01 18:34:26;;;;;;;;;;;;;;;;;;5037548;23;19929;-92
2024/03/01 18:37:14;;;;;;;;;;;;;;;;;;5018934;23;19906;-93
2024/03/01 18:43:00;;;;;;;;;;;;;;;;;;4997100;28;19922;-92
2024/03/01 18:46:03;;;;;;;;;;;;;;;;;;5020430;23;19922;-93
2024/03/01 18:48:53;;;;;;;;;;;;;;;;;;5000524;23;19986;-93
2024/03/01 18:51:38;;;;;;;;;;;;;;;;;;5032170;23;19933;-92
2024/03/01 18:54:14;;;;;;;;;;;;;;;;;;4997355;28;19905;-93
2024/03/01 18:57:00;;;;;;;;;;;;;;;;;;5084231;23;19929;-92
2024/03/01 18:59:56;;;;;;;;;;;;;;;;;;5013009;23;20020;-93
2024/03/01 19:02:23;;;;;;;;;;;;;;;;;;5517663;23;19906;-92
2024/03/01 19:04:55;;;;;;;;;;;;;;;;;;5079237;23;19906;-94
2024/03/01 19:07:40;;;;;;;;;;;;;;;;;;5012158;28;19949;-96
2024/03/01 19:10:07;;;;;;;;;;;;;;;;;;5001513;28;19914;-96
2024/03/01 19:12:32;;;;;;;;;;;;;;;;;;5014227;28;19978;-94
2024/03/01 19:14:58;;;;;;;;;;;;;;;;;;5012894;28;19914;-96
2024/03/01 19:17:23;;;;;;;;;;;;;;;;;;4978613;28;19921;-96
2024/03/01 19:19:49;;;;;;;;;;;;;;;;;;4978983;28;19968;-96
2024/03/01 19:22:14;;;;;;;;;;;;;;;;;;4980739;28;20335;-95
2024/03/01 19:24:39;;;;;;;;;;;;;;;;;;4978582;28;19937;-94
2024/03/01 19:27:11;;;;;;;;;;;;;;;;;;4984032;28;19913;-95
2024/03/01 19:29:36;;;;;;;;;;;;;;;;;;4982682;28;20027;-93
2024/03/01 19:32:02;;;;;;;;;;;;;;;;;;5003888;28;19968;-96
2024/03/01 19:34:30;;;;;;;;;;;;;;;;;;5002303;28;19964;-95
2024/03/01 19:36:56;;;;;;;;;;;;;;;;;;5002029;28;19914;-95
2024/03/01 19:39:22;;;;;;;;;;;;;;;;;;4999530;28;20300;-96
2024/03/01 19:41:52;;;;;;;;;;;;;;;;;;5003123;28;20364;-95
2024/03/01 19:44:27;;;;;;;;;;;;;;;;;;5008578;28;19913;-94
2024/03/01 19:47:02;;;;;;;;;;;;;;;;;;5010573;28;19920;-95
2024/03/01 19:49:30;;;;;;;;;;;;;;;;;;5010962;28;20350;-92
2024/03/01 19:52:03;;;;;;;;;;;;;;;;;;4990563;28;19970;-96
2024/03/01 19:54:36;;;;;;;;;;;;;;;;;;4993653;28;19914;-93
2024/03/01 19:57:17;;;;;;;;;;;;;;;;;;;;;
2024/03/01 19:59:50;;;;;;;;;;;;;;;;;;5008744;23;19930;-96
2024/03/01 20:02:21;;;;;;;;;;;;;;;;;;5424692;23;19924;-96
2024/03/01 20:04:53;;;;;;;;;;;;;;;;;;4996372;28;19918;-96
2024/03/01 20:20:25;;;;;;;;;;;;;;;;;;5648355;23;19906;-95
2024/03/01 20:22:50;;;;;;;;;;;;;;;;;;4990854;28;20015;-94
2024/03/01 20:25:17;;;;;;;;;;;;;;;;;;4999332;23;19926;-94
2024/03/01 20:32:48;;;;;;;;;;;;;;;;;;4975894;28;19906;-94
2024/03/01 20:35:14;;;;;;;;;;;;;;;;;;4946754;29;19918;-96
2024/03/01 20:37:43;;;;;;;;;;;;;;;;;;4967288;29;19925;-96
2024/03/01 20:40:21;;;;;;;;;;;;;;;;;;4951896;29;19914;-95
2024/03/01 20:43:06;;;;;;;;;;;;;;;;;;5021624;23;19960;-94
2024/03/01 20:45:34;;;;;;;;;;;;;;;;;;5017204;23;19906;-94
2024/03/01 20:48:00;;;;;;;;;;;;;;;;;;5003720;28;19924;-94
2024/03/01 20:50:31;;;;;;;;;;;;;;;;;;5016478;28;19926;-95
2024/03/01 20:53:21;;;;;;;;;;;;;;;;;;5052076;23;19989;-93
2024/03/01 20:56:27;;;;;;;;;;;;;;;;;;5002745;28;19909;-95
2024/03/01 20:58:54;;;;;;;;;;;;;;;;;;5004437;28;19925;-94
2024/03/01 21:01:52;;;;;;;;;;;;;;;;;;4983151;28;19914;-94
2024/03/01 21:05:02;;;;;;;;;;;;;;;;;;4973147;28;19925;-93
2024/03/01 21:07:31;;;;;;;;;;;;;;;;;;5017284;28;19920;-95
2024/03/01 21:10:05;;;;;;;;;;;;;;;;;;5017770;28;19948;-93
2024/03/01 21:12:37;;;;;;;;;;;;;;;;;;5000330;23;19922;-94
2024/03/01 21:15:56;;;;;;;;;;;;;;;;;;5022085;23;19905;-93
2024/03/01 21:18:59;;;;;;;;;;;;;;;;;;5014635;23;19922;-94
2024/03/01 21:21:27;;;;;;;;;;;;;;;;;;5001402;28;20008;-93
2024/03/01 21:24:11;;;;;;;;;;;;;;;;;;5008734;23;19897;-94
2024/03/01 21:26:38;;;;;;;;;;;;;;;;;;4968585;28;19972;-93
2024/03/01 21:29:04;;;;;;;;;;;;;;;;;;4964523;28;20321;-93
2024/03/01 21:31:29;;;;;;;;;;;;;;;;;;4960624;28;19985;-94
2024/03/01 21:34:02;;;;;;;;;;;;;;;;;;4978064;28;19914;-93
2024/03/01 21:36:31;;;;;;;;;;;;;;;;;;4993828;23;19933;-93
2024/03/01 21:39:26;;;;;;;;;;;;;;;;;;5015472;28;19918;-94
2024/03/01 21:42:43;;;;;;;;;;;;;;;;;;5023723;23;19913;-94
2024/03/01 21:45:29;;;;;;;;;;;;;;;;;;4979524;28;20299;-93
2024/03/01 21:47:59;;;;;;;;;;;;;;;;;;4984338;28;19918;-93
2024/03/01 21:50:30;;;;;;;;;;;;;;;;;;4997371;28;19914;-93
2024/03/01 21:53:01;;;;;;;;;;;;;;;;;;4977409;28;19921;-95
2024/03/01 21:55:34;;;;;;;;;;;;;;;;;;4994773;28;20265;-94
2024/03/01 21:58:05;;;;;;;;;;;;;;;;;;4996041;28;19937;-93
2024/03/01 22:00:36;;;;;;;;;;;;;;;;;;5079846;23;19929;-94
2024/03/01 22:03:02;;;;;;;;;;;;;;;;;;4960798;29;19922;-94
2024/03/01 22:05:30;;;;;;;;;;;;;;;;;;4943300;29;19921;-94
2024/03/01 22:08:18;;;;;;;;;;;;;;;;;;4950826;29;19942;-93
2024/03/01 22:11:04;;;;;;;;;;;;;;;;;;4964869;29;20376;-94
2024/03/01 22:13:47;;;;;;;;;;;;;;;;;;4952731;29;19914;-94
2024/03/01 22:16:18;;;;;;;;;;;;;;;;;;4948120;28;19915;-94
2024/03/01 22:18:45;;;;;;;;;;;;;;;;;;4985593;23;19922;-94
2024/03/01 22:21:14;;;;;;;;;;;;;;;;;;4977690;28;19914;-93
2024/03/01 22:23:44;;;;;;;;;;;;;;;;;;4962122;28;19914;-94
2024/03/01 22:26:11;;;;;;;;;;;;;;;;;;5089080;23;19922;-96
2024/03/01 22:28:43;;;;;;;;;;;;;;;;;;4959079;28;19919;-95
2024/03/01 22:31:15;;;;;;;;;;;;;;;;;;4940566;29;19940;-96
2024/03/01 22:33:48;;;;;;;;;;;;;;;;;;4958485;29;20281;-95
2024/03/01 22:36:23;;;;;;;;;;;;;;;;;;5321544;23;19944;-96
2024/03/01 22:41:46;;;;;;;;;;;;;;;;;;5000370;23;19928;-96
2024/03/01 22:44:31;;;;;;;;;;;;;;;;;;5000192;28;19926;-96
2024/03/01 22:46:57;;;;;;;;;;;;;;;;;;5003325;28;19920;-96
2024/03/01 22:49:23;;;;;;;;;;;;;;;;;;4989290;28;19914;-96
2024/03/01 22:52:09;;;;;;;;;;;;;;;;;;5000505;28;19918;-96
2024/03/01 22:54:35;;;;;;;;;;;;;;;;;;5011108;28;19909;-96
2024/03/01 22:57:06;;;;;;;;;;;;;;;;;;4978515;28;20384;-95
2024/03/01 23:03:03;;;;;;;;;;;;;;;;;;4987874;23;19913;-94
2024/03/01 23:05:49;;;;;;;;;;;;;;;;;;4929709;28;19932;-95
2024/03/01 23:08:57;;;;;;;;;;;;;;;;;;4992035;23;20009;-95
2024/03/01 23:11:43;;;;;;;;;;;;;;;;;;4961045;29;19928;-94
2024/03/01 23:14:25;;;;;;;;;;;;;;;;;;4961763;28;19918;-94
2024/03/01 23:16:53;;;;;;;;;;;;;;;;;;4965320;28;20266;-94
2024/03/01 23:19:30;;;;;;;;;;;;;;;;;;5102841;23;19941;-95
2024/03/01 23:22:25;;;;;;;;;;;;;;;;;;5109029;23;19898;-96
2024/03/01 23:24:50;;;;;;;;;;;;;;;;;;5251379;23;19921;-95
2024/03/01 23:27:19;;;;;;;;;;;;;;;;;;4978415;28;19972;-96
2024/03/01 23:29:44;;;;;;;;;;;;;;;;;;4960484;28;19958;-95
2024/03/01 23:32:35;;;;;;;;;;;;;;;;;;5010566;23;19926;-96
2024/03/01 23:35:01;;;;;;;;;;;;;;;;;;5002137;28;19929;-96
2024/03/01 23:37:27;;;;;;;;;;;;;;;;;;4983785;23;19944;-95
